sensor_id;sensor_type;location;lat;lon;timestamp;P1;durP1;ratioP1;P2;durP2;ratioP2
10617;SDS011;5356;43.526;26.534;2022-11-09T06:36:30;19.65;;;9.80;;
10617;SDS011;5356;43.526;26.534;2022-11-09T06:38:55;21.77;;;11.00;;
10617;SDS011;5356;43.526;26.534;2022-11-09T06:41:21;18.15;;;9.27;;
10617;SDS011;5356;43.526;26.534;2022-11-09T06:43:46;19.63;;;9.70;;
10617;SDS011;5356;43.526;26.534;2022-11-09T06:46:12;17.58;;;9.20;;
10617;SDS011;5356;43.526;26.534;2022-11-09T06:48:41;20.08;;;8.93;;
10617;SDS011;5356;43.526;26.534;2022-11-09T06:51:08;19.58;;;9.15;;
10617;SDS011;5356;43.526;26.534;2022-11-09T06:53:35;23.55;;;10.60;;
10617;SDS011;5356;43.526;26.534;2022-11-09T06:56:02;20.73;;;9.50;;
10617;SDS011;5356;43.526;26.534;2022-11-09T06:58:28;20.40;;;10.07;;
10617;SDS011;5356;43.526;26.534;2022-11-09T07:00:55;20.83;;;9.48;;
10617;SDS011;5356;43.526;26.534;2022-11-09T07:03:21;20.70;;;10.73;;
10617;SDS011;5356;43.526;26.534;2022-11-09T07:05:48;23.33;;;10.70;;
10617;SDS011;5356;43.526;26.534;2022-11-09T07:08:15;20.90;;;9.25;;
10617;SDS011;5356;43.526;26.534;2022-11-09T07:10:42;21.85;;;10.70;;
10617;SDS011;5356;43.526;26.534;2022-11-09T07:13:08;21.10;;;10.10;;
10617;SDS011;5356;43.526;26.534;2022-11-09T07:15:35;19.27;;;9.55;;
10617;SDS011;5356;43.526;26.534;2022-11-09T07:18:04;21.20;;;9.70;;
10617;SDS011;5356;43.526;26.534;2022-11-09T07:20:31;19.73;;;9.98;;
10617;SDS011;5356;43.526;26.534;2022-11-09T07:22:57;19.05;;;9.68;;
10617;SDS011;5356;43.526;26.534;2022-11-09T07:25:22;21.63;;;10.85;;
10617;SDS011;5356;43.526;26.534;2022-11-09T07:27:49;19.77;;;10.15;;
10617;SDS011;5356;43.526;26.534;2022-11-09T07:30:15;17.08;;;10.25;;
10617;SDS011;5356;43.526;26.534;2022-11-09T07:32:41;23.55;;;10.65;;
10617;SDS011;5356;43.526;26.534;2022-11-09T07:35:07;20.52;;;10.55;;
10617;SDS011;5356;43.526;26.534;2022-11-09T07:37:33;23.60;;;10.60;;
10617;SDS011;5356;43.526;26.534;2022-11-09T07:39:59;18.67;;;10.80;;
10617;SDS011;5356;43.526;26.534;2022-11-09T07:42:25;20.92;;;10.00;;
10617;SDS011;5356;43.526;26.534;2022-11-09T07:44:50;20.67;;;11.35;;
10617;SDS011;5356;43.526;26.534;2022-11-09T07:47:17;18.08;;;10.43;;
10617;SDS011;5356;43.526;26.534;2022-11-09T07:49:43;20.50;;;10.43;;
10617;SDS011;5356;43.526;26.534;2022-11-09T07:52:09;19.55;;;9.82;;
10617;SDS011;5356;43.526;26.534;2022-11-09T07:54:34;23.25;;;10.13;;
10617;SDS011;5356;43.526;26.534;2022-11-09T07:57:00;23.38;;;9.60;;
10617;SDS011;5356;43.526;26.534;2022-11-09T07:59:26;19.80;;;11.13;;
10617;SDS011;5356;43.526;26.534;2022-11-09T08:01:52;19.95;;;9.82;;
10617;SDS011;5356;43.526;26.534;2022-11-09T08:04:17;22.75;;;10.40;;
10617;SDS011;5356;43.526;26.534;2022-11-09T08:06:43;22.02;;;10.63;;
10617;SDS011;5356;43.526;26.534;2022-11-09T08:09:08;20.15;;;10.88;;
10617;SDS011;5356;43.526;26.534;2022-11-09T08:11:34;18.38;;;10.05;;
10617;SDS011;5356;43.526;26.534;2022-11-09T08:13:59;17.77;;;10.52;;
10617;SDS011;5356;43.526;26.534;2022-11-09T08:16:24;18.85;;;9.77;;
10617;SDS011;5356;43.526;26.534;2022-11-09T08:18:50;20.63;;;10.13;;
10617;SDS011;5356;43.526;26.534;2022-11-09T08:21:16;17.77;;;10.07;;
10617;SDS011;5356;43.526;26.534;2022-11-09T08:23:42;20.55;;;10.80;;
10617;SDS011;5356;43.526;26.534;2022-11-09T08:26:08;19.70;;;10.85;;
10617;SDS011;5356;43.526;26.534;2022-11-09T08:28:35;20.17;;;10.50;;
10617;SDS011;5356;43.526;26.534;2022-11-09T08:31:01;20.25;;;10.57;;
10617;SDS011;5356;43.526;26.534;2022-11-09T08:33:31;18.17;;;9.75;;
10617;SDS011;5356;43.526;26.534;2022-11-09T08:35:59;20.63;;;10.35;;
10617;SDS011;5356;43.526;26.534;2022-11-09T08:38:25;20.98;;;9.32;;
10617;SDS011;5356;43.526;26.534;2022-11-09T08:40:55;22.40;;;11.48;;
10617;SDS011;5356;43.526;26.534;2022-11-09T08:43:22;18.13;;;9.38;;
10617;SDS011;5356;43.526;26.534;2022-11-09T08:45:47;21.42;;;10.55;;
10617;SDS011;5356;43.526;26.534;2022-11-09T08:48:13;21.00;;;10.30;;
10617;SDS011;5356;43.526;26.534;2022-11-09T08:50:38;22.25;;;10.50;;
10617;SDS011;5356;43.526;26.534;2022-11-09T08:53:04;21.40;;;10.90;;
10617;SDS011;5356;43.526;26.534;2022-11-09T08:55:30;17.75;;;9.80;;
10617;SDS011;5356;43.526;26.534;2022-11-09T08:57:57;19.95;;;10.55;;
10617;SDS011;5356;43.526;26.534;2022-11-09T09:00:24;19.48;;;11.45;;
10617;SDS011;5356;43.526;26.534;2022-11-09T09:02:50;21.00;;;11.70;;
10617;SDS011;5356;43.526;26.534;2022-11-09T09:05:15;19.67;;;9.45;;
10617;SDS011;5356;43.526;26.534;2022-11-09T09:07:42;17.10;;;10.35;;
10617;SDS011;5356;43.526;26.534;2022-11-09T09:10:07;20.30;;;11.18;;
10617;SDS011;5356;43.526;26.534;2022-11-09T09:12:33;16.10;;;9.63;;
10617;SDS011;5356;43.526;26.534;2022-11-09T09:14:58;17.05;;;10.13;;
10617;SDS011;5356;43.526;26.534;2022-11-09T09:17:24;16.05;;;10.80;;
10617;SDS011;5356;43.526;26.534;2022-11-09T09:19:49;17.75;;;10.55;;
10617;SDS011;5356;43.526;26.534;2022-11-09T09:22:15;14.73;;;9.13;;
10617;SDS011;5356;43.526;26.534;2022-11-09T09:24:40;16.17;;;9.77;;
10617;SDS011;5356;43.526;26.534;2022-11-09T09:27:06;15.00;;;9.18;;
10617;SDS011;5356;43.526;26.534;2022-11-09T09:29:31;18.42;;;9.75;;
10617;SDS011;5356;43.526;26.534;2022-11-09T09:31:57;17.08;;;10.18;;
10617;SDS011;5356;43.526;26.534;2022-11-09T09:34:22;14.98;;;9.52;;
10617;SDS011;5356;43.526;26.534;2022-11-09T09:36:50;18.83;;;11.00;;
10617;SDS011;5356;43.526;26.534;2022-11-09T09:39:17;13.93;;;8.82;;
10617;SDS011;5356;43.526;26.534;2022-11-09T09:41:53;14.98;;;9.52;;
10617;SDS011;5356;43.526;26.534;2022-11-09T09:49:38;13.98;;;8.95;;
10617;SDS011;5356;43.526;26.534;2022-11-09T09:55:11;16.98;;;8.73;;
10617;SDS011;5356;43.526;26.534;2022-11-09T09:57:45;16.67;;;9.50;;
10617;SDS011;5356;43.526;26.534;2022-11-09T10:00:20;13.15;;;7.80;;
10617;SDS011;5356;43.526;26.534;2022-11-09T10:02:49;18.55;;;9.80;;
10617;SDS011;5356;43.526;26.534;2022-11-09T10:05:15;14.85;;;9.68;;
10617;SDS011;5356;43.526;26.534;2022-11-09T10:16:43;15.25;;;9.13;;
10617;SDS011;5356;43.526;26.534;2022-11-09T10:19:23;15.25;;;9.00;;
10617;SDS011;5356;43.526;26.534;2022-11-09T10:30:25;16.00;;;9.80;;
10617;SDS011;5356;43.526;26.534;2022-11-09T10:32:56;18.20;;;10.00;;
10617;SDS011;5356;43.526;26.534;2022-11-09T10:38:11;15.02;;;9.43;;
10617;SDS011;5356;43.526;26.534;2022-11-09T10:40:48;17.75;;;9.82;;
10617;SDS011;5356;43.526;26.534;2022-11-09T10:43:25;15.73;;;9.70;;
10617;SDS011;5356;43.526;26.534;2022-11-09T10:46:03;18.67;;;10.35;;
10617;SDS011;5356;43.526;26.534;2022-11-09T10:48:34;15.00;;;9.57;;
10617;SDS011;5356;43.526;26.534;2022-11-09T10:51:01;14.65;;;9.80;;
10617;SDS011;5356;43.526;26.534;2022-11-09T10:53:28;18.20;;;10.48;;
10617;SDS011;5356;43.526;26.534;2022-11-09T10:56:17;14.90;;;9.30;;
10617;SDS011;5356;43.526;26.534;2022-11-09T11:01:12;21.95;;;10.80;;
10617;SDS011;5356;43.526;26.534;2022-11-09T11:03:50;16.25;;;10.75;;
10617;SDS011;5356;43.526;26.534;2022-11-09T11:06:26;17.48;;;9.63;;
10617;SDS011;5356;43.526;26.534;2022-11-09T11:11:33;15.50;;;9.48;;
10617;SDS011;5356;43.526;26.534;2022-11-09T11:16:44;24.20;;;11.50;;
10617;SDS011;5356;43.526;26.534;2022-11-09T11:30:20;14.10;;;9.10;;
10617;SDS011;5356;43.526;26.534;2022-11-09T11:32:55;12.55;;;8.65;;
10617;SDS011;5356;43.526;26.534;2022-11-09T11:40:28;15.27;;;8.40;;
10617;SDS011;5356;43.526;26.534;2022-11-09T11:46:01;12.23;;;8.43;;
10617;SDS011;5356;43.526;26.534;2022-11-09T12:24:28;15.70;;;8.55;;
10617;SDS011;5356;43.526;26.534;2022-11-09T12:32:27;12.10;;;7.90;;
10617;SDS011;5356;43.526;26.534;2022-11-09T12:38:18;26.98;;;16.40;;
10617;SDS011;5356;43.526;26.534;2022-11-09T12:40:49;18.50;;;10.40;;
10617;SDS011;5356;43.526;26.534;2022-11-09T12:45:53;14.73;;;9.13;;
10617;SDS011;5356;43.526;26.534;2022-11-09T12:51:12;14.82;;;9.15;;
10617;SDS011;5356;43.526;26.534;2022-11-09T12:53:38;14.15;;;8.68;;
10617;SDS011;5356;43.526;26.534;2022-11-09T12:56:09;13.82;;;8.30;;
10617;SDS011;5356;43.526;26.534;2022-11-09T12:58:41;15.48;;;8.65;;
10617;SDS011;5356;43.526;26.534;2022-11-09T13:03:59;17.23;;;9.43;;
10617;SDS011;5356;43.526;26.534;2022-11-09T13:06:28;13.20;;;8.55;;
10617;SDS011;5356;43.526;26.534;2022-11-09T13:09:01;12.85;;;8.32;;
10617;SDS011;5356;43.526;26.534;2022-11-09T13:11:48;13.68;;;9.15;;
10617;SDS011;5356;43.526;26.534;2022-11-09T13:17:00;13.88;;;8.70;;
10617;SDS011;5356;43.526;26.534;2022-11-09T13:29:56;15.68;;;9.05;;
10617;SDS011;5356;43.526;26.534;2022-11-09T13:32:24;18.55;;;9.88;;
10617;SDS011;5356;43.526;26.534;2022-11-09T13:34:54;18.33;;;9.60;;
10617;SDS011;5356;43.526;26.534;2022-11-09T13:43:03;19.48;;;10.00;;
10617;SDS011;5356;43.526;26.534;2022-11-09T13:47:59;15.55;;;9.63;;
10617;SDS011;5356;43.526;26.534;2022-11-09T13:50:26;17.58;;;8.85;;
10617;SDS011;5356;43.526;26.534;2022-11-09T13:52:57;18.23;;;9.95;;
10617;SDS011;5356;43.526;26.534;2022-11-09T13:55:25;15.05;;;9.85;;
10617;SDS011;5356;43.526;26.534;2022-11-09T13:57:56;17.25;;;9.77;;
10617;SDS011;5356;43.526;26.534;2022-11-09T14:00:25;15.90;;;8.77;;
10617;SDS011;5356;43.526;26.534;2022-11-09T14:02:58;13.95;;;9.63;;
10617;SDS011;5356;43.526;26.534;2022-11-09T14:05:30;17.77;;;10.05;;
10617;SDS011;5356;43.526;26.534;2022-11-09T14:07:59;15.10;;;9.18;;
10617;SDS011;5356;43.526;26.534;2022-11-09T14:21:38;17.42;;;10.00;;
10617;SDS011;5356;43.526;26.534;2022-11-09T14:27:11;17.05;;;11.38;;
10617;SDS011;5356;43.526;26.534;2022-11-09T14:29:46;19.70;;;12.93;;
10617;SDS011;5356;43.526;26.534;2022-11-09T14:32:31;19.35;;;10.90;;
10617;SDS011;5356;43.526;26.534;2022-11-09T14:37:54;18.35;;;10.95;;
10617;SDS011;5356;43.526;26.534;2022-11-09T14:40:24;20.60;;;11.15;;
10617;SDS011;5356;43.526;26.534;2022-11-09T14:45:20;21.38;;;12.02;;
10617;SDS011;5356;43.526;26.534;2022-11-09T14:47:47;18.52;;;10.93;;
10617;SDS011;5356;43.526;26.534;2022-11-09T14:50:19;17.38;;;10.40;;
10617;SDS011;5356;43.526;26.534;2022-11-09T14:52:48;18.33;;;10.13;;
10617;SDS011;5356;43.526;26.534;2022-11-09T14:55:16;21.13;;;11.45;;
10617;SDS011;5356;43.526;26.534;2022-11-09T14:57:43;17.83;;;10.73;;
10617;SDS011;5356;43.526;26.534;2022-11-09T15:00:28;18.13;;;10.32;;
10617;SDS011;5356;43.526;26.534;2022-11-09T15:02:58;21.50;;;10.70;;
10617;SDS011;5356;43.526;26.534;2022-11-09T15:05:44;20.75;;;10.77;;
10617;SDS011;5356;43.526;26.534;2022-11-09T15:08:20;19.38;;;11.38;;
10617;SDS011;5356;43.526;26.534;2022-11-09T15:10:47;20.27;;;10.93;;
10617;SDS011;5356;43.526;26.534;2022-11-09T15:13:14;42.67;;;18.88;;
10617;SDS011;5356;43.526;26.534;2022-11-09T15:15:39;63.97;;;26.80;;
10617;SDS011;5356;43.526;26.534;2022-11-09T15:18:13;70.30;;;28.08;;
10617;SDS011;5356;43.526;26.534;2022-11-09T15:20:45;62.38;;;26.23;;
10617;SDS011;5356;43.526;26.534;2022-11-09T15:23:20;62.33;;;25.58;;
10617;SDS011;5356;43.526;26.534;2022-11-09T15:28:17;60.90;;;24.65;;
10617;SDS011;5356;43.526;26.534;2022-11-09T15:31:08;59.25;;;25.02;;
10617;SDS011;5356;43.526;26.534;2022-11-09T15:33:47;64.68;;;25.10;;
10617;SDS011;5356;43.526;26.534;2022-11-09T15:41:53;44.10;;;19.38;;
10617;SDS011;5356;43.526;26.534;2022-11-09T15:44:19;48.80;;;21.08;;
10617;SDS011;5356;43.526;26.534;2022-11-09T15:46:46;49.30;;;20.38;;
10617;SDS011;5356;43.526;26.534;2022-11-09T15:51:49;46.88;;;20.95;;
10617;SDS011;5356;43.526;26.534;2022-11-09T15:54:16;47.13;;;19.80;;
10617;SDS011;5356;43.526;26.534;2022-11-09T15:56:42;51.53;;;19.60;;
10617;SDS011;5356;43.526;26.534;2022-11-09T15:59:40;44.33;;;19.38;;
10617;SDS011;5356;43.526;26.534;2022-11-09T16:01:59;38.97;;;17.85;;
10617;SDS011;5356;43.526;26.534;2022-11-09T16:04:24;39.13;;;19.75;;
10617;SDS011;5356;43.526;26.534;2022-11-09T16:06:50;39.90;;;18.63;;
10617;SDS011;5356;43.526;26.534;2022-11-09T16:09:15;37.95;;;16.55;;
10617;SDS011;5356;43.526;26.534;2022-11-09T16:11:41;26.52;;;13.68;;
10617;SDS011;5356;43.526;26.534;2022-11-09T16:14:07;30.83;;;14.10;;
10617;SDS011;5356;43.526;26.534;2022-11-09T16:16:33;35.03;;;16.75;;
10617;SDS011;5356;43.526;26.534;2022-11-09T16:18:58;32.28;;;14.52;;
10617;SDS011;5356;43.526;26.534;2022-11-09T16:21:24;30.83;;;14.13;;
10617;SDS011;5356;43.526;26.534;2022-11-09T16:23:50;26.00;;;14.07;;
10617;SDS011;5356;43.526;26.534;2022-11-09T16:26:16;32.65;;;13.43;;
10617;SDS011;5356;43.526;26.534;2022-11-09T16:28:43;28.08;;;12.65;;
10617;SDS011;5356;43.526;26.534;2022-11-09T16:31:09;26.83;;;13.90;;
10617;SDS011;5356;43.526;26.534;2022-11-09T16:33:39;22.42;;;12.45;;
10617;SDS011;5356;43.526;26.534;2022-11-09T16:36:07;25.98;;;12.27;;
10617;SDS011;5356;43.526;26.534;2022-11-09T16:38:39;24.10;;;11.32;;
10617;SDS011;5356;43.526;26.534;2022-11-09T16:41:10;18.23;;;10.63;;
10617;SDS011;5356;43.526;26.534;2022-11-09T16:43:38;26.67;;;10.93;;
10617;SDS011;5356;43.526;26.534;2022-11-09T16:46:04;16.05;;;9.32;;
10617;SDS011;5356;43.526;26.534;2022-11-09T16:48:33;17.27;;;9.77;;
10617;SDS011;5356;43.526;26.534;2022-11-09T16:50:59;20.60;;;9.43;;
10617;SDS011;5356;43.526;26.534;2022-11-09T16:53:26;20.63;;;10.05;;
10617;SDS011;5356;43.526;26.534;2022-11-09T16:55:51;18.50;;;9.82;;
10617;SDS011;5356;43.526;26.534;2022-11-09T16:58:17;20.25;;;9.90;;
10617;SDS011;5356;43.526;26.534;2022-11-09T17:00:46;20.75;;;10.55;;
10617;SDS011;5356;43.526;26.534;2022-11-09T17:03:14;20.27;;;9.82;;
10617;SDS011;5356;43.526;26.534;2022-11-09T17:05:40;18.10;;;9.60;;
10617;SDS011;5356;43.526;26.534;2022-11-09T17:08:07;16.35;;;9.98;;
10617;SDS011;5356;43.526;26.534;2022-11-09T17:10:33;17.27;;;8.32;;
10617;SDS011;5356;43.526;26.534;2022-11-09T17:13:03;18.63;;;9.15;;
10617;SDS011;5356;43.526;26.534;2022-11-09T17:15:29;17.00;;;9.05;;
10617;SDS011;5356;43.526;26.534;2022-11-09T17:17:55;22.85;;;8.73;;
10617;SDS011;5356;43.526;26.534;2022-11-09T17:20:20;18.70;;;9.00;;
10617;SDS011;5356;43.526;26.534;2022-11-09T17:22:46;15.10;;;8.88;;
10617;SDS011;5356;43.526;26.534;2022-11-09T17:25:12;16.50;;;9.02;;
10617;SDS011;5356;43.526;26.534;2022-11-09T17:27:39;13.70;;;8.43;;
10617;SDS011;5356;43.526;26.534;2022-11-09T17:30:05;16.40;;;8.57;;
10617;SDS011;5356;43.526;26.534;2022-11-09T17:32:31;16.27;;;9.02;;
10617;SDS011;5356;43.526;26.534;2022-11-09T17:34:58;13.40;;;8.18;;
10617;SDS011;5356;43.526;26.534;2022-11-09T17:37:23;18.27;;;10.02;;
10617;SDS011;5356;43.526;26.534;2022-11-09T17:39:50;17.08;;;8.77;;
10617;SDS011;5356;43.526;26.534;2022-11-09T17:42:15;16.20;;;8.02;;
10617;SDS011;5356;43.526;26.534;2022-11-09T17:44:41;16.58;;;7.95;;
10617;SDS011;5356;43.526;26.534;2022-11-09T17:47:06;15.55;;;8.05;;
10617;SDS011;5356;43.526;26.534;2022-11-09T17:49:32;15.73;;;8.32;;
10617;SDS011;5356;43.526;26.534;2022-11-09T17:51:57;18.80;;;9.07;;
10617;SDS011;5356;43.526;26.534;2022-11-09T17:54:23;15.68;;;8.80;;
10617;SDS011;5356;43.526;26.534;2022-11-09T17:56:49;14.85;;;8.50;;
10617;SDS011;5356;43.526;26.534;2022-11-09T17:59:15;18.17;;;9.38;;
10617;SDS011;5356;43.526;26.534;2022-11-09T18:01:41;17.08;;;8.48;;
10617;SDS011;5356;43.526;26.534;2022-11-09T18:04:07;15.65;;;7.95;;
10617;SDS011;5356;43.526;26.534;2022-11-09T18:06:34;17.63;;;8.07;;
10617;SDS011;5356;43.526;26.534;2022-11-09T18:09:00;12.57;;;7.97;;
10617;SDS011;5356;43.526;26.534;2022-11-09T18:11:26;14.48;;;7.13;;
10617;SDS011;5356;43.526;26.534;2022-11-09T18:13:54;18.55;;;8.15;;
10617;SDS011;5356;43.526;26.534;2022-11-09T18:16:20;14.15;;;7.85;;
10617;SDS011;5356;43.526;26.534;2022-11-09T18:18:46;15.57;;;8.13;;
10617;SDS011;5356;43.526;26.534;2022-11-09T18:21:12;17.77;;;8.48;;
10617;SDS011;5356;43.526;26.534;2022-11-09T18:23:42;13.27;;;7.00;;
10617;SDS011;5356;43.526;26.534;2022-11-09T18:26:09;15.38;;;6.97;;
10617;SDS011;5356;43.526;26.534;2022-11-09T18:28:36;17.80;;;7.22;;
10617;SDS011;5356;43.526;26.534;2022-11-09T18:31:05;15.43;;;8.20;;
10617;SDS011;5356;43.526;26.534;2022-11-09T18:33:32;20.23;;;9.93;;
10617;SDS011;5356;43.526;26.534;2022-11-09T18:35:59;16.90;;;8.13;;
10617;SDS011;5356;43.526;26.534;2022-11-09T18:38:29;24.02;;;13.18;;
10617;SDS011;5356;43.526;26.534;2022-11-09T18:41:02;18.33;;;10.82;;
10617;SDS011;5356;43.526;26.534;2022-11-09T18:43:31;17.58;;;10.55;;
10617;SDS011;5356;43.526;26.534;2022-11-09T18:45:57;15.23;;;8.73;;
10617;SDS011;5356;43.526;26.534;2022-11-09T18:48:27;15.20;;;7.88;;
10617;SDS011;5356;43.526;26.534;2022-11-09T18:50:56;11.52;;;6.13;;
10617;SDS011;5356;43.526;26.534;2022-11-09T18:53:24;12.55;;;7.25;;
10617;SDS011;5356;43.526;26.534;2022-11-09T18:55:51;10.88;;;6.18;;
10617;SDS011;5356;43.526;26.534;2022-11-09T18:58:23;10.23;;;5.80;;
10617;SDS011;5356;43.526;26.534;2022-11-09T19:00:50;10.68;;;6.90;;
10617;SDS011;5356;43.526;26.534;2022-11-09T19:03:22;13.15;;;6.10;;
10617;SDS011;5356;43.526;26.534;2022-11-09T19:05:47;13.15;;;6.90;;
10617;SDS011;5356;43.526;26.534;2022-11-09T19:08:14;15.15;;;8.13;;
10617;SDS011;5356;43.526;26.534;2022-11-09T19:10:39;14.98;;;8.27;;
10617;SDS011;5356;43.526;26.534;2022-11-09T19:13:05;13.88;;;8.02;;
10617;SDS011;5356;43.526;26.534;2022-11-09T19:15:32;15.38;;;7.72;;
10617;SDS011;5356;43.526;26.534;2022-11-09T19:18:03;14.40;;;8.20;;
10617;SDS011;5356;43.526;26.534;2022-11-09T19:20:30;13.45;;;8.55;;
10617;SDS011;5356;43.526;26.534;2022-11-09T19:22:55;13.27;;;8.82;;
10617;SDS011;5356;43.526;26.534;2022-11-09T19:25:22;12.23;;;6.90;;
10617;SDS011;5356;43.526;26.534;2022-11-09T19:27:48;14.52;;;7.38;;
10617;SDS011;5356;43.526;26.534;2022-11-09T19:30:14;9.77;;;6.18;;
10617;SDS011;5356;43.526;26.534;2022-11-09T19:32:40;11.73;;;7.57;;
10617;SDS011;5356;43.526;26.534;2022-11-09T19:35:05;12.02;;;6.75;;
10617;SDS011;5356;43.526;26.534;2022-11-09T19:37:31;14.00;;;6.78;;
10617;SDS011;5356;43.526;26.534;2022-11-09T19:39:56;13.63;;;7.22;;
10617;SDS011;5356;43.526;26.534;2022-11-09T19:42:22;13.93;;;7.82;;
10617;SDS011;5356;43.526;26.534;2022-11-09T19:44:47;15.32;;;8.55;;
10617;SDS011;5356;43.526;26.534;2022-11-09T19:47:13;11.80;;;7.22;;
10617;SDS011;5356;43.526;26.534;2022-11-09T19:49:38;16.13;;;7.90;;
10617;SDS011;5356;43.526;26.534;2022-11-09T19:52:04;11.00;;;6.55;;
10617;SDS011;5356;43.526;26.534;2022-11-09T19:54:29;11.63;;;6.75;;
10617;SDS011;5356;43.526;26.534;2022-11-09T19:56:54;14.57;;;7.05;;
10617;SDS011;5356;43.526;26.534;2022-11-09T19:59:20;13.20;;;7.35;;
10617;SDS011;5356;43.526;26.534;2022-11-09T20:01:46;14.75;;;7.63;;
10617;SDS011;5356;43.526;26.534;2022-11-09T20:04:12;17.65;;;8.95;;
10617;SDS011;5356;43.526;26.534;2022-11-09T20:06:37;13.43;;;8.48;;
10617;SDS011;5356;43.526;26.534;2022-11-09T20:09:04;13.93;;;8.20;;
10617;SDS011;5356;43.526;26.534;2022-11-09T20:11:29;12.15;;;6.95;;
10617;SDS011;5356;43.526;26.534;2022-11-09T20:14:13;13.18;;;7.28;;
10617;SDS011;5356;43.526;26.534;2022-11-09T20:16:39;10.77;;;6.63;;
10617;SDS011;5356;43.526;26.534;2022-11-09T20:19:06;10.05;;;6.93;;
10617;SDS011;5356;43.526;26.534;2022-11-09T20:21:34;14.32;;;6.90;;
10617;SDS011;5356;43.526;26.534;2022-11-09T20:24:01;11.85;;;6.30;;
10617;SDS011;5356;43.526;26.534;2022-11-09T20:26:26;12.70;;;8.00;;
10617;SDS011;5356;43.526;26.534;2022-11-09T20:28:52;14.43;;;6.40;;
10617;SDS011;5356;43.526;26.534;2022-11-09T20:31:21;9.57;;;5.40;;
10617;SDS011;5356;43.526;26.534;2022-11-09T20:33:47;12.30;;;6.43;;
10617;SDS011;5356;43.526;26.534;2022-11-09T20:36:14;15.27;;;6.95;;
10617;SDS011;5356;43.526;26.534;2022-11-09T20:38:40;14.38;;;6.65;;
10617;SDS011;5356;43.526;26.534;2022-11-09T20:41:07;15.25;;;7.15;;
10617;SDS011;5356;43.526;26.534;2022-11-09T20:43:35;10.98;;;6.05;;
10617;SDS011;5356;43.526;26.534;2022-11-09T20:46:05;9.13;;;5.55;;
10617;SDS011;5356;43.526;26.534;2022-11-09T20:48:39;12.02;;;5.95;;
10617;SDS011;5356;43.526;26.534;2022-11-09T20:51:06;11.57;;;5.88;;
10617;SDS011;5356;43.526;26.534;2022-11-09T20:53:33;10.70;;;5.95;;
10617;SDS011;5356;43.526;26.534;2022-11-09T20:55:59;10.65;;;5.35;;
10617;SDS011;5356;43.526;26.534;2022-11-09T20:58:25;11.50;;;5.32;;
10617;SDS011;5356;43.526;26.534;2022-11-09T21:00:58;10.35;;;6.25;;
10617;SDS011;5356;43.526;26.534;2022-11-09T21:03:30;13.15;;;6.20;;
10617;SDS011;5356;43.526;26.534;2022-11-09T21:05:57;12.85;;;5.90;;
10617;SDS011;5356;43.526;26.534;2022-11-09T21:08:24;11.02;;;6.32;;
10617;SDS011;5356;43.526;26.534;2022-11-09T21:10:50;14.43;;;7.90;;
10617;SDS011;5356;43.526;26.534;2022-11-09T21:13:16;14.43;;;7.60;;
10617;SDS011;5356;43.526;26.534;2022-11-09T21:15:42;19.52;;;10.50;;
10617;SDS011;5356;43.526;26.534;2022-11-09T21:18:08;31.70;;;12.65;;
10617;SDS011;5356;43.526;26.534;2022-11-09T21:20:34;21.50;;;9.68;;
10617;SDS011;5356;43.526;26.534;2022-11-09T21:22:59;18.65;;;9.40;;
10617;SDS011;5356;43.526;26.534;2022-11-09T21:25:40;16.92;;;9.18;;
10617;SDS011;5356;43.526;26.534;2022-11-09T21:28:26;13.88;;;8.15;;
10617;SDS011;5356;43.526;26.534;2022-11-09T21:31:11;13.45;;;6.93;;
10617;SDS011;5356;43.526;26.534;2022-11-09T21:33:37;15.40;;;7.65;;
10617;SDS011;5356;43.526;26.534;2022-11-09T21:38:32;20.50;;;8.77;;
10617;SDS011;5356;43.526;26.534;2022-11-09T21:40:58;15.40;;;8.30;;
10617;SDS011;5356;43.526;26.534;2022-11-09T21:43:25;12.60;;;6.45;;
10617;SDS011;5356;43.526;26.534;2022-11-09T21:45:50;10.00;;;6.18;;
10617;SDS011;5356;43.526;26.534;2022-11-09T21:48:18;13.38;;;5.88;;
10617;SDS011;5356;43.526;26.534;2022-11-09T21:50:43;9.70;;;5.40;;
10617;SDS011;5356;43.526;26.534;2022-11-09T21:53:09;11.45;;;5.35;;
10617;SDS011;5356;43.526;26.534;2022-11-09T21:55:34;11.02;;;5.20;;
10617;SDS011;5356;43.526;26.534;2022-11-09T21:58:00;7.68;;;4.57;;
10617;SDS011;5356;43.526;26.534;2022-11-09T22:00:25;9.50;;;5.65;;
10617;SDS011;5356;43.526;26.534;2022-11-09T22:02:51;12.05;;;5.13;;
10617;SDS011;5356;43.526;26.534;2022-11-09T22:05:16;10.65;;;6.07;;
10617;SDS011;5356;43.526;26.534;2022-11-09T22:07:41;11.85;;;5.57;;
10617;SDS011;5356;43.526;26.534;2022-11-09T22:10:07;12.63;;;5.25;;
10617;SDS011;5356;43.526;26.534;2022-11-09T22:12:35;8.45;;;4.95;;
10617;SDS011;5356;43.526;26.534;2022-11-09T22:15:33;9.48;;;5.03;;
10617;SDS011;5356;43.526;26.534;2022-11-09T22:18:18;10.55;;;5.85;;
10617;SDS011;5356;43.526;26.534;2022-11-09T22:21:01;13.20;;;5.90;;
10617;SDS011;5356;43.526;26.534;2022-11-09T22:23:27;8.82;;;5.32;;
10617;SDS011;5356;43.526;26.534;2022-11-09T22:25:52;10.95;;;5.82;;
10617;SDS011;5356;43.526;26.534;2022-11-09T22:28:18;10.02;;;6.00;;
10617;SDS011;5356;43.526;26.534;2022-11-09T22:30:43;9.18;;;5.47;;
10617;SDS011;5356;43.526;26.534;2022-11-09T22:33:09;13.38;;;5.97;;
10617;SDS011;5356;43.526;26.534;2022-11-09T22:35:34;10.55;;;5.55;;
10617;SDS011;5356;43.526;26.534;2022-11-09T22:38:00;12.95;;;6.30;;
10617;SDS011;5356;43.526;26.534;2022-11-09T22:40:26;11.63;;;6.65;;
10617;SDS011;5356;43.526;26.534;2022-11-09T22:42:55;12.68;;;6.03;;
10617;SDS011;5356;43.526;26.534;2022-11-09T22:45:21;10.90;;;6.18;;
10617;SDS011;5356;43.526;26.534;2022-11-09T22:47:46;9.23;;;5.60;;
10617;SDS011;5356;43.526;26.534;2022-11-09T22:50:12;14.50;;;6.32;;
10617;SDS011;5356;43.526;26.534;2022-11-09T22:52:38;12.63;;;5.63;;
10617;SDS011;5356;43.526;26.534;2022-11-09T22:55:03;12.70;;;6.22;;
10617;SDS011;5356;43.526;26.534;2022-11-09T22:57:29;11.10;;;5.43;;
10617;SDS011;5356;43.526;26.534;2022-11-09T22:59:56;11.48;;;5.68;;
10617;SDS011;5356;43.526;26.534;2022-11-09T23:02:22;10.25;;;5.60;;
10617;SDS011;5356;43.526;26.534;2022-11-09T23:04:47;9.88;;;5.93;;
10617;SDS011;5356;43.526;26.534;2022-11-09T23:07:13;12.10;;;5.80;;
10617;SDS011;5356;43.526;26.534;2022-11-09T23:09:38;10.95;;;6.20;;
10617;SDS011;5356;43.526;26.534;2022-11-09T23:12:04;12.32;;;5.95;;
10617;SDS011;5356;43.526;26.534;2022-11-09T23:14:30;12.07;;;6.25;;
10617;SDS011;5356;43.526;26.534;2022-11-09T23:17:14;12.65;;;5.95;;
10617;SDS011;5356;43.526;26.534;2022-11-09T23:19:59;11.80;;;5.88;;
10617;SDS011;5356;43.526;26.534;2022-11-09T23:22:25;13.30;;;6.03;;
10617;SDS011;5356;43.526;26.534;2022-11-09T23:24:50;10.60;;;5.68;;
10617;SDS011;5356;43.526;26.534;2022-11-09T23:27:35;14.88;;;5.90;;
10617;SDS011;5356;43.526;26.534;2022-11-09T23:30:00;12.57;;;6.60;;
10617;SDS011;5356;43.526;26.534;2022-11-09T23:32:25;14.95;;;6.47;;
10617;SDS011;5356;43.526;26.534;2022-11-09T23:34:51;11.27;;;5.93;;
10617;SDS011;5356;43.526;26.534;2022-11-09T23:37:16;10.68;;;5.78;;
10617;SDS011;5356;43.526;26.534;2022-11-09T23:39:42;12.10;;;5.97;;
10617;SDS011;5356;43.526;26.534;2022-11-09T23:42:07;13.10;;;6.20;;
10617;SDS011;5356;43.526;26.534;2022-11-09T23:44:33;12.20;;;5.60;;
10617;SDS011;5356;43.526;26.534;2022-11-09T23:46:58;11.75;;;5.75;;
10617;SDS011;5356;43.526;26.534;2022-11-09T23:49:23;15.13;;;6.07;;
10617;SDS011;5356;43.526;26.534;2022-11-09T23:51:49;13.30;;;5.45;;
10617;SDS011;5356;43.526;26.534;2022-11-09T23:54:14;9.23;;;4.80;;